createdAt,value
2023-03-23T15:57:53.702Z,1.30
2023-03-23T16:00:23.640Z,1.40
2023-03-23T16:03:00.149Z,1.40
2023-03-23T16:05:28.272Z,1.47
2023-03-23T16:07:55.809Z,1.03
2023-03-23T16:10:25.993Z,2.37
2023-03-23T16:12:53.134Z,1.57
2023-03-23T16:15:21.266Z,1.37
2023-03-23T16:17:48.461Z,1.10
2023-03-23T16:20:25.573Z,1.60
2023-03-23T16:22:53.013Z,0.90
2023-03-23T16:25:20.481Z,1.07
2023-03-23T16:27:52.320Z,1.20
2023-03-23T16:30:27.722Z,1.40
2023-03-23T16:32:57.659Z,1.20
2023-03-23T16:35:25.895Z,1.57
2023-03-23T16:38:07.671Z,2.03
2023-03-23T16:40:39.152Z,1.13
2023-03-23T16:43:08.920Z,1.30
2023-03-23T16:45:41.610Z,1.77
2023-03-23T16:48:11.649Z,1.77
2023-03-23T16:50:39.329Z,1.67
2023-03-23T16:53:08.666Z,1.90
2023-03-23T16:55:37.319Z,2.30
2023-03-23T16:58:16.411Z,2.90
2023-03-23T17:00:49.024Z,1.73
2023-03-23T17:03:17.608Z,2.90
2023-03-23T17:05:45.276Z,1.90
2023-03-23T17:08:12.547Z,2.27
2023-03-23T17:10:41.711Z,1.77
2023-03-23T17:13:09.482Z,3.17
2023-03-23T17:15:43.624Z,2.20
2023-03-23T17:18:13.107Z,2.50
2023-03-23T17:20:40.057Z,2.83
2023-03-23T17:23:07.007Z,2.17
2023-03-23T17:25:34.017Z,2.27
2023-03-23T17:28:05.925Z,6.17
2023-03-23T17:30:45.047Z,3.33
2023-03-23T17:33:13.451Z,2.50
2023-03-23T17:35:41.651Z,1.87
2023-03-23T17:38:08.731Z,2.20
2023-03-23T17:40:35.796Z,2.40
2023-03-23T17:43:02.903Z,2.03
2023-03-23T17:45:30.530Z,2.97
2023-03-23T17:47:57.518Z,2.67
2023-03-23T17:50:24.499Z,2.20
2023-03-23T17:52:51.511Z,2.27
2023-03-23T17:55:18.705Z,2.50
2023-03-23T17:57:46.067Z,1.67
2023-03-23T18:00:14.560Z,1.90
2023-03-23T18:02:41.635Z,1.60
2023-03-23T18:05:09.863Z,2.80
2023-03-23T18:07:37.536Z,2.90
2023-03-23T18:10:11.771Z,1.50
2023-03-23T18:12:42.272Z,1.83
2023-03-23T18:15:11.065Z,6.97
2023-03-23T18:17:38.659Z,4.43
2023-03-23T18:20:08.621Z,2.40
2023-03-23T18:22:35.628Z,2.30
2023-03-23T18:25:05.148Z,1.80
2023-03-23T18:27:33.302Z,1.87
2023-03-23T18:30:00.435Z,2.20
2023-03-23T18:32:27.817Z,2.17
2023-03-23T18:34:55.982Z,3.00
2023-03-23T18:37:23.098Z,2.30
2023-03-23T18:39:50.115Z,2.23
2023-03-23T18:42:17.075Z,2.13
2023-03-23T18:44:44.062Z,3.23
2023-03-23T18:47:10.997Z,3.60
2023-03-23T18:49:38.160Z,2.47
2023-03-23T18:52:05.977Z,2.60
2023-03-23T18:54:34.897Z,2.33
2023-03-23T18:57:02.513Z,2.37
2023-03-23T18:59:34.549Z,3.03
2023-03-23T19:02:01.701Z,2.43
2023-03-23T19:04:31.550Z,1.93
2023-03-23T19:07:01.470Z,2.20
2023-03-23T19:09:30.021Z,2.00
2023-03-23T19:11:57.261Z,2.50
2023-03-23T19:14:24.236Z,2.37
2023-03-23T19:16:52.265Z,2.57
2023-03-23T19:19:19.964Z,2.80
2023-03-23T19:21:47.265Z,2.10
2023-03-23T19:24:14.394Z,2.67
2023-03-23T19:26:44.171Z,2.80
2023-03-23T19:31:47.202Z,2.30
2023-03-23T19:34:15.860Z,2.43
2023-03-23T19:36:50.285Z,2.47
2023-03-23T19:39:22.078Z,2.60
2023-03-23T19:41:50.996Z,2.50
2023-03-23T19:44:18.233Z,2.37
2023-03-23T19:46:45.678Z,2.90
2023-03-23T19:49:12.844Z,2.87
2023-03-23T19:51:39.911Z,3.00
2023-03-23T19:54:07.952Z,2.83
2023-03-23T19:56:36.132Z,3.40
2023-03-23T19:59:04.600Z,3.60
2023-03-23T20:01:32.194Z,3.30
2023-03-23T20:04:00.113Z,3.13
2023-03-23T20:06:29.231Z,3.40
2023-03-23T20:09:00.026Z,3.00
2023-03-23T20:11:28.055Z,3.33
2023-03-23T20:13:55.526Z,3.33
2023-03-23T20:16:23.713Z,4.10
2023-03-23T20:18:51.017Z,3.93
2023-03-23T20:21:22.600Z,4.30
2023-03-23T20:23:53.259Z,4.53
2023-03-23T20:26:32.557Z,3.90
2023-03-23T20:29:00.840Z,3.60
2023-03-23T20:31:35.064Z,3.70
2023-03-23T20:34:11.644Z,3.67
2023-03-23T20:36:42.331Z,3.60
2023-03-23T20:39:21.133Z,3.60
2023-03-23T20:41:54.463Z,4.70
2023-03-23T20:44:25.103Z,3.77
2023-03-23T20:46:53.448Z,3.90
2023-03-23T20:49:22.064Z,4.10
2023-03-23T20:51:50.695Z,3.50
2023-03-23T20:54:19.943Z,3.90
2023-03-23T20:56:48.278Z,3.57
2023-03-23T20:59:16.764Z,3.83
2023-03-23T21:01:44.888Z,3.50
2023-03-23T21:04:22.075Z,3.77
2023-03-23T21:06:50.261Z,4.30
2023-03-23T21:09:17.847Z,3.50
2023-03-23T21:11:46.219Z,4.63
2023-03-23T21:14:14.002Z,4.17
2023-03-23T21:16:41.764Z,3.20
2023-03-23T21:19:09.162Z,3.70
2023-03-23T21:21:36.389Z,4.13
2023-03-23T21:24:03.975Z,4.37
2023-03-23T21:26:31.219Z,4.83
2023-03-23T21:29:00.363Z,3.70
2023-03-23T21:31:30.729Z,4.60
2023-03-23T21:34:01.370Z,4.87
2023-03-23T21:36:29.401Z,4.27
2023-03-23T21:38:57.086Z,3.40
2023-03-23T21:41:24.786Z,4.67
2023-03-23T21:43:51.865Z,4.60
2023-03-23T21:46:18.947Z,4.77
2023-03-23T21:48:51.740Z,5.77
2023-03-23T21:51:26.188Z,5.17
2023-03-23T21:53:54.640Z,4.53
2023-03-23T21:56:25.194Z,4.73
2023-03-23T21:58:52.278Z,4.93
2023-03-23T22:01:21.436Z,6.10
2023-03-23T22:03:49.542Z,5.57
2023-03-23T22:06:26.233Z,5.43
2023-03-23T22:08:54.153Z,5.63
2023-03-23T22:11:28.789Z,5.40
2023-03-23T22:13:57.658Z,5.50
2023-03-23T22:16:26.204Z,6.27
2023-03-23T22:18:58.837Z,6.07
2023-03-23T22:21:28.403Z,5.50
2023-03-23T22:23:58.745Z,4.60
2023-03-23T22:26:27.716Z,5.20
2023-03-23T22:28:56.079Z,5.30
2023-03-23T22:31:28.100Z,5.53
2023-03-23T22:33:57.115Z,5.23
2023-03-23T22:36:27.123Z,5.17
2023-03-23T22:38:56.291Z,4.70
2023-03-23T22:41:36.937Z,5.17
2023-03-23T22:44:06.184Z,3.93
2023-03-23T22:46:33.341Z,5.47
2023-03-23T22:49:00.662Z,4.47
2023-03-23T22:51:27.981Z,5.83
2023-03-23T22:53:56.521Z,4.50
2023-03-23T22:56:24.873Z,4.70
2023-03-23T22:58:52.047Z,4.50
2023-03-23T23:01:22.704Z,5.13
2023-03-23T23:03:50.247Z,4.30
2023-03-23T23:06:18.749Z,4.77
2023-03-23T23:08:46.847Z,4.30
2023-03-23T23:11:16.430Z,3.93
2023-03-23T23:13:44.302Z,3.80
2023-03-23T23:16:14.128Z,4.43
2023-03-23T23:18:41.362Z,4.13
2023-03-23T23:21:14.255Z,4.13
2023-03-23T23:23:41.593Z,4.27
2023-03-23T23:26:09.893Z,3.43
2023-03-23T23:28:37.261Z,3.73
2023-03-23T23:31:06.395Z,4.10
2023-03-23T23:33:33.655Z,3.33
2023-03-23T23:36:01.593Z,3.60
2023-03-23T23:38:28.650Z,3.30
2023-03-23T23:40:55.651Z,3.03
2023-03-23T23:43:22.669Z,3.47
2023-03-23T23:45:49.705Z,2.83
2023-03-23T23:48:16.932Z,3.37
2023-03-23T23:50:44.261Z,3.17
2023-03-23T23:53:13.082Z,3.20
2023-03-23T23:55:40.624Z,2.37
2023-03-23T23:58:07.765Z,3.43
